sensor_id;sensor_type;location;lat;lon;timestamp;pressure;altitude;pressure_sealevel;temperature;humidity
4199;BME280;2113;50.946;14.610;2023-04-15T00:00:56;95606.84;;;4.82;100.00
4199;BME280;2113;50.946;14.610;2023-04-15T00:03:25;95597.75;;;4.78;100.00
4199;BME280;2113;50.946;14.610;2023-04-15T00:05:54;95601.94;;;4.79;100.00
4199;BME280;2113;50.946;14.610;2023-04-15T00:08:23;95603.56;;;4.80;100.00
4199;BME280;2113;50.946;14.610;2023-04-15T00:10:52;95604.41;;;4.81;100.00
4199;BME280;2113;50.946;14.610;2023-04-15T00:13:22;95595.69;;;4.82;100.00
4199;BME280;2113;50.946;14.610;2023-04-15T00:15:50;95589.56;;;4.83;100.00
4199;BME280;2113;50.946;14.610;2023-04-15T00:18:18;95598.25;;;4.82;100.00
4199;BME280;2113;50.946;14.610;2023-04-15T00:20:46;95591.59;;;4.79;100.00
4199;BME280;2113;50.946;14.610;2023-04-15T00:23:14;95587.25;;;4.80;100.00
4199;BME280;2113;50.946;14.610;2023-04-15T00:25:43;95578.66;;;4.79;100.00
4199;BME280;2113;50.946;14.610;2023-04-15T00:28:11;95586.06;;;4.74;100.00
4199;BME280;2113;50.946;14.610;2023-04-15T00:30:41;95581.56;;;4.76;100.00
4199;BME280;2113;50.946;14.610;2023-04-15T00:33:10;95580.47;;;4.69;100.00
4199;BME280;2113;50.946;14.610;2023-04-15T00:35:38;95570.94;;;4.70;100.00
4199;BME280;2113;50.946;14.610;2023-04-15T00:38:08;95570.66;;;4.73;100.00
4199;BME280;2113;50.946;14.610;2023-04-15T00:40:37;95581.97;;;4.72;100.00
4199;BME280;2113;50.946;14.610;2023-04-15T00:43:05;95573.94;;;4.75;100.00
4199;BME280;2113;50.946;14.610;2023-04-15T00:45:33;95558.00;;;4.70;100.00
4199;BME280;2113;50.946;14.610;2023-04-15T00:48:04;95551.06;;;4.70;100.00
4199;BME280;2113;50.946;14.610;2023-04-15T00:50:33;95549.72;;;4.66;100.00
4199;BME280;2113;50.946;14.610;2023-04-15T00:53:01;95543.91;;;4.64;100.00
4199;BME280;2113;50.946;14.610;2023-04-15T00:55:29;95557.63;;;4.64;100.00
4199;BME280;2113;50.946;14.610;2023-04-15T00:57:58;95549.88;;;4.64;100.00
4199;BME280;2113;50.946;14.610;2023-04-15T01:00:26;95549.44;;;4.69;100.00
4199;BME280;2113;50.946;14.610;2023-04-15T01:02:55;95544.84;;;4.63;100.00
4199;BME280;2113;50.946;14.610;2023-04-15T01:05:28;95543.91;;;4.64;100.00
4199;BME280;2113;50.946;14.610;2023-04-15T01:07:57;95539.00;;;4.61;100.00
4199;BME280;2113;50.946;14.610;2023-04-15T01:10:25;95543.22;;;4.62;100.00
4199;BME280;2113;50.946;14.610;2023-04-15T01:12:54;95538.84;;;4.62;100.00
4199;BME280;2113;50.946;14.610;2023-04-15T01:15:24;95546.75;;;4.61;100.00
4199;BME280;2113;50.946;14.610;2023-04-15T01:17:53;95541.56;;;4.61;100.00
4199;BME280;2113;50.946;14.610;2023-04-15T01:20:21;95531.78;;;4.64;100.00
4199;BME280;2113;50.946;14.610;2023-04-15T01:22:53;95534.63;;;4.61;100.00
4199;BME280;2113;50.946;14.610;2023-04-15T01:25:30;95529.75;;;4.58;100.00
4199;BME280;2113;50.946;14.610;2023-04-15T01:27:59;95524.44;;;4.60;100.00
4199;BME280;2113;50.946;14.610;2023-04-15T01:30:28;95523.47;;;4.61;100.00
4199;BME280;2113;50.946;14.610;2023-04-15T01:32:56;95524.97;;;4.63;100.00
4199;BME280;2113;50.946;14.610;2023-04-15T01:35:43;95523.63;;;4.59;100.00
4199;BME280;2113;50.946;14.610;2023-04-15T01:38:12;95515.03;;;4.59;100.00
4199;BME280;2113;50.946;14.610;2023-04-15T01:40:42;95522.00;;;4.58;100.00
4199;BME280;2113;50.946;14.610;2023-04-15T01:43:12;95513.41;;;4.58;100.00
4199;BME280;2113;50.946;14.610;2023-04-15T01:45:42;95510.81;;;4.58;100.00
4199;BME280;2113;50.946;14.610;2023-04-15T01:48:12;95510.16;;;4.56;100.00
4199;BME280;2113;50.946;14.610;2023-04-15T01:50:42;95523.88;;;4.56;100.00
4199;BME280;2113;50.946;14.610;2023-04-15T01:53:11;95514.22;;;4.58;100.00
4199;BME280;2113;50.946;14.610;2023-04-15T01:55:43;95512.75;;;4.56;100.00
4199;BME280;2113;50.946;14.610;2023-04-15T01:58:15;95503.22;;;4.56;100.00
4199;BME280;2113;50.946;14.610;2023-04-15T02:00:44;95507.44;;;4.57;100.00
4199;BME280;2113;50.946;14.610;2023-04-15T02:03:14;95508.38;;;4.56;100.00
4199;BME280;2113;50.946;14.610;2023-04-15T02:05:44;95504.84;;;4.57;100.00
4199;BME280;2113;50.946;14.610;2023-04-15T02:08:14;95504.97;;;4.56;100.00
4199;BME280;2113;50.946;14.610;2023-04-15T02:10:45;95504.84;;;4.57;100.00
4199;BME280;2113;50.946;14.610;2023-04-15T02:13:15;95499.69;;;4.57;100.00
4199;BME280;2113;50.946;14.610;2023-04-15T02:15:46;95492.19;;;4.54;100.00
4199;BME280;2113;50.946;14.610;2023-04-15T02:18:19;95495.59;;;4.55;100.00
4199;BME280;2113;50.946;14.610;2023-04-15T02:20:50;95488.66;;;4.55;100.00
4199;BME280;2113;50.946;14.610;2023-04-15T02:23:19;95489.06;;;4.60;100.00
4199;BME280;2113;50.946;14.610;2023-04-15T02:25:51;95485.53;;;4.61;100.00
4199;BME280;2113;50.946;14.610;2023-04-15T02:28:21;95490.16;;;4.58;100.00
4199;BME280;2113;50.946;14.610;2023-04-15T02:30:51;95490.97;;;4.58;100.00
4199;BME280;2113;50.946;14.610;2023-04-15T02:33:23;95493.00;;;4.64;100.00
4199;BME280;2113;50.946;14.610;2023-04-15T02:35:52;95489.19;;;4.59;100.00
4199;BME280;2113;50.946;14.610;2023-04-15T02:38:22;95490.97;;;4.58;100.00
4199;BME280;2113;50.946;14.610;2023-04-15T02:40:54;95491.66;;;4.60;100.00
4199;BME280;2113;50.946;14.610;2023-04-15T02:43:24;95490.69;;;4.61;100.00
4199;BME280;2113;50.946;14.610;2023-04-15T02:45:54;95492.47;;;4.61;100.00
4199;BME280;2113;50.946;14.610;2023-04-15T02:48:24;95489.06;;;4.60;100.00
4199;BME280;2113;50.946;14.610;2023-04-15T02:51:12;95491.50;;;4.62;100.00
4199;BME280;2113;50.946;14.610;2023-04-15T02:53:42;95490.81;;;4.60;100.00
4199;BME280;2113;50.946;14.610;2023-04-15T02:56:14;95502.78;;;4.61;100.00
4199;BME280;2113;50.946;14.610;2023-04-15T02:58:45;95502.53;;;4.64;100.00
4199;BME280;2113;50.946;14.610;2023-04-15T03:01:18;95498.44;;;4.61;100.00
4199;BME280;2113;50.946;14.610;2023-04-15T03:03:47;95496.09;;;4.68;100.00
4199;BME280;2113;50.946;14.610;2023-04-15T03:06:17;95509.16;;;4.67;100.00
4199;BME280;2113;50.946;14.610;2023-04-15T03:08:46;95523.03;;;4.65;100.00
4199;BME280;2113;50.946;14.610;2023-04-15T03:11:18;95536.25;;;4.72;100.00
4199;BME280;2113;50.946;14.610;2023-04-15T03:13:49;95550.16;;;4.61;100.00
4199;BME280;2113;50.946;14.610;2023-04-15T03:16:32;95562.66;;;4.56;100.00
4199;BME280;2113;50.946;14.610;2023-04-15T03:19:02;95561.06;;;4.46;100.00
4199;BME280;2113;50.946;14.610;2023-04-15T03:21:33;95570.31;;;4.48;100.00
4199;BME280;2113;50.946;14.610;2023-04-15T03:24:02;95561.88;;;4.46;100.00
4199;BME280;2113;50.946;14.610;2023-04-15T03:26:33;95563.09;;;4.42;100.00
4199;BME280;2113;50.946;14.610;2023-04-15T03:29:10;95562.84;;;4.45;100.00
4199;BME280;2113;50.946;14.610;2023-04-15T03:31:40;95564.75;;;4.43;100.00
4199;BME280;2113;50.946;14.610;2023-04-15T03:34:11;95566.63;;;4.41;100.00
4199;BME280;2113;50.946;14.610;2023-04-15T03:36:41;95568.56;;;4.49;100.00
4199;BME280;2113;50.946;14.610;2023-04-15T03:39:11;95573.16;;;4.45;100.00
4199;BME280;2113;50.946;14.610;2023-04-15T03:41:42;95573.28;;;4.53;100.00
4199;BME280;2113;50.946;14.610;2023-04-15T03:44:19;95573.16;;;4.45;100.00
4199;BME280;2113;50.946;14.610;2023-04-15T03:46:49;95565.00;;;4.40;100.00
4199;BME280;2113;50.946;14.610;2023-04-15T03:49:19;95556.56;;;4.38;100.00
4199;BME280;2113;50.946;14.610;2023-04-15T03:51:50;95559.84;;;4.40;100.00
4199;BME280;2113;50.946;14.610;2023-04-15T03:54:19;95556.56;;;4.38;100.00
4199;BME280;2113;50.946;14.610;2023-04-15T03:56:50;95561.75;;;4.38;100.00
4199;BME280;2113;50.946;14.610;2023-04-15T03:59:20;95561.34;;;4.43;100.00
4199;BME280;2113;50.946;14.610;2023-04-15T04:01:49;95563.38;;;4.49;100.00
4199;BME280;2113;50.946;14.610;2023-04-15T04:04:19;95564.47;;;4.46;100.00
4199;BME280;2113;50.946;14.610;2023-04-15T04:06:49;95560.66;;;4.50;100.00
4199;BME280;2113;50.946;14.610;2023-04-15T04:09:18;95554.25;;;4.45;100.00
4199;BME280;2113;50.946;14.610;2023-04-15T04:11:47;95553.84;;;4.40;100.00
4199;BME280;2113;50.946;14.610;2023-04-15T04:14:18;95565.13;;;4.39;100.00
4199;BME280;2113;50.946;14.610;2023-04-15T04:16:48;95565.13;;;4.39;100.00
4199;BME280;2113;50.946;14.610;2023-04-15T04:19:18;95572.66;;;4.32;100.00
4199;BME280;2113;50.946;14.610;2023-04-15T04:21:47;95578.50;;;4.34;100.00
4199;BME280;2113;50.946;14.610;2023-04-15T04:24:17;95574.28;;;4.33;100.00
4199;BME280;2113;50.946;14.610;2023-04-15T04:26:48;95582.59;;;4.37;100.00
4199;BME280;2113;50.946;14.610;2023-04-15T04:29:20;95583.53;;;4.36;100.00
4199;BME280;2113;50.946;14.610;2023-04-15T04:31:50;95578.06;;;4.39;100.00
4199;BME280;2113;50.946;14.610;2023-04-15T04:34:20;95584.59;;;4.43;100.00
4199;BME280;2113;50.946;14.610;2023-04-15T04:36:49;95589.78;;;4.33;100.00
4199;BME280;2113;50.946;14.610;2023-04-15T04:39:19;95590.72;;;4.32;100.00
4199;BME280;2113;50.946;14.610;2023-04-15T04:41:49;95590.03;;;4.40;100.00
4199;BME280;2113;50.946;14.610;2023-04-15T04:44:20;95602.72;;;4.33;100.00
4199;BME280;2113;50.946;14.610;2023-04-15T04:46:50;95598.63;;;4.31;100.00
4199;BME280;2113;50.946;14.610;2023-04-15T04:49:20;95603.38;;;4.35;100.00
4199;BME280;2113;50.946;14.610;2023-04-15T04:51:50;95603.25;;;4.37;100.00
4199;BME280;2113;50.946;14.610;2023-04-15T04:54:19;95601.06;;;4.42;100.00
4199;BME280;2113;50.946;14.610;2023-04-15T04:56:49;95607.19;;;4.41;100.00
4199;BME280;2113;50.946;14.610;2023-04-15T04:59:20;95611.53;;;4.40;100.00
4199;BME280;2113;50.946;14.610;2023-04-15T05:01:49;95608.56;;;4.35;100.00
4199;BME280;2113;50.946;14.610;2023-04-15T05:04:19;95605.56;;;4.30;100.00
4199;BME280;2113;50.946;14.610;2023-04-15T05:06:49;95599.44;;;4.31;100.00
4199;BME280;2113;50.946;14.610;2023-04-15T05:09:19;95608.81;;;4.32;100.00
4199;BME280;2113;50.946;14.610;2023-04-15T05:11:49;95615.63;;;4.33;100.00
4199;BME280;2113;50.946;14.610;2023-04-15T05:14:20;95624.31;;;4.42;100.00
4199;BME280;2113;50.946;14.610;2023-04-15T05:16:51;95620.38;;;4.38;100.00
4199;BME280;2113;50.946;14.610;2023-04-15T05:19:20;95627.16;;;4.39;100.00
4199;BME280;2113;50.946;14.610;2023-04-15T05:21:50;95634.13;;;4.28;100.00
4199;BME280;2113;50.946;14.610;2023-04-15T05:24:20;95627.03;;;4.31;100.00
4199;BME280;2113;50.946;14.610;2023-04-15T05:26:49;95629.91;;;4.27;100.00
4199;BME280;2113;50.946;14.610;2023-04-15T05:29:20;95632.75;;;4.24;100.00
4199;BME280;2113;50.946;14.610;2023-04-15T05:31:50;95643.78;;;4.17;100.00
4199;BME280;2113;50.946;14.610;2023-04-15T05:34:19;95645.94;;;4.12;100.00
4199;BME280;2113;50.946;14.610;2023-04-15T05:36:49;95648.50;;;4.02;100.00
4199;BME280;2113;50.946;14.610;2023-04-15T05:39:20;95655.56;;;3.90;100.00
4199;BME280;2113;50.946;14.610;2023-04-15T05:41:49;95655.41;;;3.82;99.46
4199;BME280;2113;50.946;14.610;2023-04-15T05:44:20;95655.38;;;3.73;99.13
4199;BME280;2113;50.946;14.610;2023-04-15T05:46:50;95660.66;;;3.71;98.46
4199;BME280;2113;50.946;14.610;2023-04-15T05:49:20;95660.66;;;3.71;99.67
4199;BME280;2113;50.946;14.610;2023-04-15T05:51:49;95658.19;;;3.60;97.60
4199;BME280;2113;50.946;14.610;2023-04-15T05:54:19;95665.94;;;3.60;98.62
4199;BME280;2113;50.946;14.610;2023-04-15T05:56:49;95675.06;;;3.64;98.93
4199;BME280;2113;50.946;14.610;2023-04-15T05:59:20;95685.19;;;3.56;98.32
4199;BME280;2113;50.946;14.610;2023-04-15T06:01:50;95684.53;;;3.54;98.58
4199;BME280;2113;50.946;14.610;2023-04-15T06:04:20;95689.28;;;3.49;98.90
4199;BME280;2113;50.946;14.610;2023-04-15T06:06:50;95687.63;;;3.48;98.03
4199;BME280;2113;50.946;14.610;2023-04-15T06:09:20;95690.22;;;3.48;96.98
4199;BME280;2113;50.946;14.610;2023-04-15T06:11:50;95691.59;;;3.52;97.20
4199;BME280;2113;50.946;14.610;2023-04-15T06:14:22;95685.88;;;3.48;96.45
4199;BME280;2113;50.946;14.610;2023-04-15T06:16:51;95679.78;;;3.59;96.75
4199;BME280;2113;50.946;14.610;2023-04-15T06:19:21;95686.22;;;3.65;95.92
4199;BME280;2113;50.946;14.610;2023-04-15T06:21:50;95687.28;;;3.62;95.40
4199;BME280;2113;50.946;14.610;2023-04-15T06:24:20;95697.84;;;3.59;94.27
4199;BME280;2113;50.946;14.610;2023-04-15T06:26:49;95700.03;;;3.54;94.72
4199;BME280;2113;50.946;14.610;2023-04-15T06:29:19;95703.56;;;3.53;94.46
4199;BME280;2113;50.946;14.610;2023-04-15T06:31:51;95700.97;;;3.53;93.42
4199;BME280;2113;50.946;14.610;2023-04-15T06:34:20;95698.28;;;3.64;93.44
4199;BME280;2113;50.946;14.610;2023-04-15T06:36:49;95712.72;;;3.67;93.94
4199;BME280;2113;50.946;14.610;2023-04-15T06:39:19;95702.66;;;3.73;93.88
4199;BME280;2113;50.946;14.610;2023-04-15T06:41:49;95700.19;;;3.62;92.72
4199;BME280;2113;50.946;14.610;2023-04-15T06:44:21;95711.19;;;3.64;92.89
4199;BME280;2113;50.946;14.610;2023-04-15T06:46:52;95713.66;;;3.66;93.29
4199;BME280;2113;50.946;14.610;2023-04-15T06:49:22;95707.97;;;3.72;93.04
4199;BME280;2113;50.946;14.610;2023-04-15T06:51:52;95716.69;;;3.80;91.59
4199;BME280;2113;50.946;14.610;2023-04-15T06:54:23;95722.72;;;3.90;91.98
4199;BME280;2113;50.946;14.610;2023-04-15T06:56:52;95721.75;;;3.91;90.95
4199;BME280;2113;50.946;14.610;2023-04-15T06:59:22;95728.03;;;3.99;90.50
4199;BME280;2113;50.946;14.610;2023-04-15T07:01:53;95725.75;;;4.05;90.53
4199;BME280;2113;50.946;14.610;2023-04-15T07:04:23;95720.84;;;4.12;90.41
4199;BME280;2113;50.946;14.610;2023-04-15T07:06:52;95726.31;;;4.18;90.97
4199;BME280;2113;50.946;14.610;2023-04-15T07:09:23;95722.66;;;4.21;90.62
4199;BME280;2113;50.946;14.610;2023-04-15T07:11:53;95730.28;;;4.22;90.13
4199;BME280;2113;50.946;14.610;2023-04-15T07:14:22;95724.56;;;4.38;89.67
4199;BME280;2113;50.946;14.610;2023-04-15T07:16:53;95720.38;;;4.56;90.59
4199;BME280;2113;50.946;14.610;2023-04-15T07:19:24;95722.69;;;4.69;89.93
4199;BME280;2113;50.946;14.610;2023-04-15T07:21:53;95729.50;;;4.60;88.17
4199;BME280;2113;50.946;14.610;2023-04-15T07:24:23;95728.56;;;4.61;88.63
4199;BME280;2113;50.946;14.610;2023-04-15T07:26:53;95741.88;;;4.67;88.36
4199;BME280;2113;50.946;14.610;2023-04-15T07:29:25;95740.50;;;4.53;88.23
4199;BME280;2113;50.946;14.610;2023-04-15T07:31:56;95743.25;;;4.61;88.57
4199;BME280;2113;50.946;14.610;2023-04-15T07:34:26;95751.25;;;4.68;87.95
4199;BME280;2113;50.946;14.610;2023-04-15T07:36:59;95749.50;;;4.68;87.46
4199;BME280;2113;50.946;14.610;2023-04-15T07:39:29;95750.34;;;4.78;87.49
4199;BME280;2113;50.946;14.610;2023-04-15T07:41:58;95748.16;;;5.03;87.30
4199;BME280;2113;50.946;14.610;2023-04-15T07:44:30;95748.16;;;4.83;87.36
4199;BME280;2113;50.946;14.610;2023-04-15T07:47:01;95750.88;;;4.91;85.91
4199;BME280;2113;50.946;14.610;2023-04-15T07:49:31;95766.09;;;4.94;86.91
4199;BME280;2113;50.946;14.610;2023-04-15T07:52:01;95758.09;;;4.88;87.73
4199;BME280;2113;50.946;14.610;2023-04-15T07:54:31;95765.84;;;4.88;87.80
4199;BME280;2113;50.946;14.610;2023-04-15T07:57:00;95768.28;;;5.09;86.26
4199;BME280;2113;50.946;14.610;2023-04-15T07:59:35;95774.69;;;4.85;87.06
4199;BME280;2113;50.946;14.610;2023-04-15T08:02:06;95779.44;;;4.80;86.79
4199;BME280;2113;50.946;14.610;2023-04-15T08:04:37;95774.28;;;4.61;86.64
4199;BME280;2113;50.946;14.610;2023-04-15T08:07:08;95782.16;;;4.79;86.62
4199;BME280;2113;50.946;14.610;2023-04-15T08:09:37;95785.97;;;4.94;85.48
4199;BME280;2113;50.946;14.610;2023-04-15T08:12:07;95783.56;;;5.02;84.32
4199;BME280;2113;50.946;14.610;2023-04-15T08:14:39;95785.28;;;5.21;82.98
4199;BME280;2113;50.946;14.610;2023-04-15T08:17:10;95781.34;;;5.26;84.08
4199;BME280;2113;50.946;14.610;2023-04-15T08:19:40;95783.38;;;5.42;82.50
4199;BME280;2113;50.946;14.610;2023-04-15T08:22:11;95788.56;;;5.23;82.15
4199;BME280;2113;50.946;14.610;2023-04-15T08:24:45;95791.16;;;5.32;82.16
4199;BME280;2113;50.946;14.610;2023-04-15T08:27:15;95788.44;;;5.24;80.91
4199;BME280;2113;50.946;14.610;2023-04-15T08:29:48;95787.75;;;5.22;81.84
4199;BME280;2113;50.946;14.610;2023-04-15T08:32:19;95802.06;;;4.97;81.27
4199;BME280;2113;50.946;14.610;2023-04-15T08:34:49;95800.03;;;5.01;83.56
4199;BME280;2113;50.946;14.610;2023-04-15T08:37:19;95798.25;;;4.82;82.58
4199;BME280;2113;50.946;14.610;2023-04-15T08:39:50;95800.81;;;5.21;83.14
4199;BME280;2113;50.946;14.610;2023-04-15T08:42:22;95798.94;;;5.13;83.50
4199;BME280;2113;50.946;14.610;2023-04-15T08:44:58;95808.06;;;4.98;84.32
4199;BME280;2113;50.946;14.610;2023-04-15T08:47:33;95816.75;;;5.07;81.98
4199;BME280;2113;50.946;14.610;2023-04-15T08:50:08;95809.13;;;5.24;82.66
4199;BME280;2113;50.946;14.610;2023-04-15T08:52:38;95805.34;;;5.19;80.39
4199;BME280;2113;50.946;14.610;2023-04-15T08:55:10;95821.28;;;5.05;79.59
4199;BME280;2113;50.946;14.610;2023-04-15T08:57:40;95816.78;;;5.16;80.66
4199;BME280;2113;50.946;14.610;2023-04-15T09:00:11;95823.28;;;5.40;80.74
4199;BME280;2113;50.946;14.610;2023-04-15T09:02:43;95824.63;;;5.53;79.30
4199;BME280;2113;50.946;14.610;2023-04-15T09:05:13;95817.63;;;5.83;78.94
4199;BME280;2113;50.946;14.610;2023-04-15T09:07:43;95819.06;;;6.14;77.19
4199;BME280;2113;50.946;14.610;2023-04-15T09:10:13;95821.00;;;6.39;75.26
4199;BME280;2113;50.946;14.610;2023-04-15T09:12:43;95827.03;;;6.30;75.98
4199;BME280;2113;50.946;14.610;2023-04-15T09:15:12;95814.03;;;6.67;77.22
4199;BME280;2113;50.946;14.610;2023-04-15T09:17:45;95829.09;;;5.90;75.23
4199;BME280;2113;50.946;14.610;2023-04-15T09:20:16;95835.44;;;5.29;78.29
4199;BME280;2113;50.946;14.610;2023-04-15T09:22:48;95839.38;;;5.14;80.02
4199;BME280;2113;50.946;14.610;2023-04-15T09:25:25;95837.88;;;5.12;80.80
4199;BME280;2113;50.946;14.610;2023-04-15T09:27:57;95842.63;;;5.35;81.22
4199;BME280;2113;50.946;14.610;2023-04-15T09:30:28;95845.09;;;5.27;79.79
4199;BME280;2113;50.946;14.610;2023-04-15T09:33:02;95836.66;;;5.16;79.00
4199;BME280;2113;50.946;14.610;2023-04-15T09:35:35;95852.47;;;5.32;79.25
4199;BME280;2113;50.946;14.610;2023-04-15T09:38:07;95851.38;;;5.15;78.43
4199;BME280;2113;50.946;14.610;2023-04-15T09:40:39;95852.31;;;5.05;80.13
4199;BME280;2113;50.946;14.610;2023-04-15T09:43:09;95857.91;;;5.10;80.62
4199;BME280;2113;50.946;14.610;2023-04-15T09:45:47;95858.03;;;5.37;79.03
4199;BME280;2113;50.946;14.610;2023-04-15T09:48:20;95854.22;;;5.41;78.35
4199;BME280;2113;50.946;14.610;2023-04-15T09:50:57;95861.28;;;5.49;77.39
4199;BME280;2113;50.946;14.610;2023-04-15T09:53:27;95869.06;;;5.68;77.53
4199;BME280;2113;50.946;14.610;2023-04-15T09:55:59;95867.19;;;5.41;77.63
4199;BME280;2113;50.946;14.610;2023-04-15T09:58:30;95865.50;;;5.79;78.27
4199;BME280;2113;50.946;14.610;2023-04-15T10:01:03;95860.03;;;5.91;74.73
4199;BME280;2113;50.946;14.610;2023-04-15T10:03:35;95865.16;;;6.48;74.13
4199;BME280;2113;50.946;14.610;2023-04-15T10:06:05;95865.44;;;6.54;72.77
4199;BME280;2113;50.946;14.610;2023-04-15T10:08:35;95866.19;;;7.27;70.54
4199;BME280;2113;50.946;14.610;2023-04-15T10:11:05;95866.63;;;7.40;71.03
4199;BME280;2113;50.946;14.610;2023-04-15T10:13:35;95864.47;;;7.00;73.56
4199;BME280;2113;50.946;14.610;2023-04-15T10:16:08;95874.31;;;6.52;74.33
4199;BME280;2113;50.946;14.610;2023-04-15T10:18:43;95875.13;;;6.05;74.71
4199;BME280;2113;50.946;14.610;2023-04-15T10:21:14;95868.06;;;6.07;76.75
4199;BME280;2113;50.946;14.610;2023-04-15T10:23:48;95874.66;;;6.29;75.01
4199;BME280;2113;50.946;14.610;2023-04-15T10:26:19;95867.88;;;6.19;73.39
4199;BME280;2113;50.946;14.610;2023-04-15T10:28:49;95864.84;;;6.60;75.01
4199;BME280;2113;50.946;14.610;2023-04-15T10:31:21;95869.09;;;7.06;71.13
4199;BME280;2113;50.946;14.610;2023-04-15T10:33:53;95872.81;;;6.76;71.39
4199;BME280;2113;50.946;14.610;2023-04-15T10:36:25;95885.03;;;6.66;71.58
4199;BME280;2113;50.946;14.610;2023-04-15T10:38:59;95889.00;;;6.61;72.17
4199;BME280;2113;50.946;14.610;2023-04-15T10:41:30;95886.66;;;6.67;71.95
4199;BME280;2113;50.946;14.610;2023-04-15T10:44:03;95885.09;;;6.74;72.68
4199;BME280;2113;50.946;14.610;2023-04-15T10:46:34;95884.56;;;6.71;73.51
4199;BME280;2113;50.946;14.610;2023-04-15T10:49:10;95891.88;;;6.58;72.24
4199;BME280;2113;50.946;14.610;2023-04-15T10:51:41;95890.63;;;6.62;71.97
4199;BME280;2113;50.946;14.610;2023-04-15T10:54:13;95889.13;;;6.87;73.44
4199;BME280;2113;50.946;14.610;2023-04-15T10:56:43;95881.34;;;6.87;70.44
4199;BME280;2113;50.946;14.610;2023-04-15T10:59:14;95885.38;;;6.99;72.92
4199;BME280;2113;50.946;14.610;2023-04-15T11:01:53;95886.53;;;7.32;70.94
4199;BME280;2113;50.946;14.610;2023-04-15T11:04:54;95890.44;;;7.89;69.73
4199;BME280;2113;50.946;14.610;2023-04-15T11:07:37;95892.22;;;7.89;68.00
4199;BME280;2113;50.946;14.610;2023-04-15T11:13:24;95887.78;;;8.07;66.01
4199;BME280;2113;50.946;14.610;2023-04-15T11:16:00;95882.75;;;8.05;67.01
4199;BME280;2113;50.946;14.610;2023-04-15T11:18:37;95910.94;;;7.74;66.10
4199;BME280;2113;50.946;14.610;2023-04-15T11:21:08;95906.47;;;7.84;65.88
4199;BME280;2113;50.946;14.610;2023-04-15T11:23:39;95912.19;;;7.70;67.02
4199;BME280;2113;50.946;14.610;2023-04-15T11:26:12;95909.59;;;7.53;66.06
4199;BME280;2113;50.946;14.610;2023-04-15T11:28:44;95911.66;;;7.84;66.46
4199;BME280;2113;50.946;14.610;2023-04-15T11:31:15;95908.22;;;8.02;67.35
4199;BME280;2113;50.946;14.610;2023-04-15T11:33:46;95914.69;;;8.41;65.09
4199;BME280;2113;50.946;14.610;2023-04-15T11:36:24;95911.28;;;7.97;65.76
4199;BME280;2113;50.946;14.610;2023-04-15T11:38:57;95910.47;;;8.23;65.81
4199;BME280;2113;50.946;14.610;2023-04-15T11:41:27;95917.59;;;8.20;67.35
4199;BME280;2113;50.946;14.610;2023-04-15T11:43:56;95923.69;;;8.29;66.10
4199;BME280;2113;50.946;14.610;2023-04-15T11:46:29;95927.47;;;8.35;68.89
4199;BME280;2113;50.946;14.610;2023-04-15T11:49:00;95930.34;;;8.83;64.27
4199;BME280;2113;50.946;14.610;2023-04-15T11:51:32;95928.88;;;8.47;63.26
4199;BME280;2113;50.946;14.610;2023-04-15T11:54:01;95927.16;;;7.94;65.47
4199;BME280;2113;50.946;14.610;2023-04-15T11:56:31;95940.41;;;7.83;67.64
4199;BME280;2113;50.946;14.610;2023-04-15T11:59:00;95923.75;;;7.94;70.19
4199;BME280;2113;50.946;14.610;2023-04-15T12:01:32;95938.09;;;7.98;69.48
4199;BME280;2113;50.946;14.610;2023-04-15T12:04:01;95937.69;;;8.10;67.10
4199;BME280;2113;50.946;14.610;2023-04-15T12:06:32;95941.78;;;8.13;66.33
4199;BME280;2113;50.946;14.610;2023-04-15T12:09:07;95944.72;;;7.92;66.84
4199;BME280;2113;50.946;14.610;2023-04-15T12:11:41;95948.19;;;8.01;69.25
4199;BME280;2113;50.946;14.610;2023-04-15T12:14:20;95947.13;;;8.11;70.29
4199;BME280;2113;50.946;14.610;2023-04-15T12:16:50;95947.84;;;8.21;66.14
4199;BME280;2113;50.946;14.610;2023-04-15T12:19:24;95948.81;;;8.20;66.74
4199;BME280;2113;50.946;14.610;2023-04-15T12:21:57;95948.34;;;8.43;64.10
4199;BME280;2113;50.946;14.610;2023-04-15T12:24:28;95955.94;;;8.36;65.78
4199;BME280;2113;50.946;14.610;2023-04-15T12:27:01;95957.13;;;9.02;62.59
4199;BME280;2113;50.946;14.610;2023-04-15T12:29:31;95955.88;;;9.14;60.93
4199;BME280;2113;50.946;14.610;2023-04-15T12:32:05;95951.63;;;9.13;62.13
4199;BME280;2113;50.946;14.610;2023-04-15T12:34:35;95953.19;;;8.64;63.00
4199;BME280;2113;50.946;14.610;2023-04-15T12:37:07;95955.75;;;8.55;61.22
4199;BME280;2113;50.946;14.610;2023-04-15T12:39:37;95958.34;;;8.89;62.61
4199;BME280;2113;50.946;14.610;2023-04-15T12:42:07;95953.03;;;9.41;62.32
4199;BME280;2113;50.946;14.610;2023-04-15T12:44:36;95956.25;;;9.35;61.31
4199;BME280;2113;50.946;14.610;2023-04-15T12:47:06;95968.13;;;8.87;60.59
4199;BME280;2113;50.946;14.610;2023-04-15T12:49:35;95974.69;;;9.00;60.52
4199;BME280;2113;50.946;14.610;2023-04-15T12:52:05;95970.81;;;9.54;60.11
4199;BME280;2113;50.946;14.610;2023-04-15T12:54:33;95970.97;;;9.52;56.57
4199;BME280;2113;50.946;14.610;2023-04-15T12:57:01;95972.44;;;9.71;58.86
4199;BME280;2113;50.946;14.610;2023-04-15T12:59:33;95978.75;;;9.02;61.41
4199;BME280;2113;50.946;14.610;2023-04-15T13:02:02;95977.47;;;9.06;59.07
4199;BME280;2113;50.946;14.610;2023-04-15T13:04:31;95985.50;;;9.21;63.05
4199;BME280;2113;50.946;14.610;2023-04-15T13:07:00;95986.38;;;8.96;59.02
4199;BME280;2113;50.946;14.610;2023-04-15T13:09:29;95983.28;;;9.34;61.88
4199;BME280;2113;50.946;14.610;2023-04-15T13:11:58;95985.38;;;9.31;59.37
4199;BME280;2113;50.946;14.610;2023-04-15T13:14:26;95990.38;;;9.16;58.81
4199;BME280;2113;50.946;14.610;2023-04-15T13:16:54;95990.97;;;9.44;58.27
4199;BME280;2113;50.946;14.610;2023-04-15T13:19:24;95993.09;;;9.40;59.96
4199;BME280;2113;50.946;14.610;2023-04-15T13:21:52;95992.88;;;9.92;60.97
4199;BME280;2113;50.946;14.610;2023-04-15T13:24:21;95988.84;;;9.47;58.58
4199;BME280;2113;50.946;14.610;2023-04-15T13:26:51;95999.94;;;9.07;58.90
4199;BME280;2113;50.946;14.610;2023-04-15T13:29:19;95995.28;;;8.85;61.10
4199;BME280;2113;50.946;14.610;2023-04-15T13:31:48;96003.25;;;8.83;64.26
4199;BME280;2113;50.946;14.610;2023-04-15T13:34:16;96000.19;;;8.88;62.27
4199;BME280;2113;50.946;14.610;2023-04-15T13:36:44;96007.78;;;8.81;61.09
4199;BME280;2113;50.946;14.610;2023-04-15T13:39:13;96008.06;;;8.70;59.37